createdAt,value
2018-10-21T00:01:30.517Z,13.97
2018-10-21T00:05:34.299Z,14.80
2018-10-21T00:09:38.147Z,14.23
2018-10-21T00:13:41.876Z,15.10
2018-10-21T00:17:45.601Z,14.70
2018-10-21T00:21:49.379Z,15.20
2018-10-21T00:25:53.214Z,16.63
2018-10-21T00:29:56.956Z,15.13
2018-10-21T00:34:00.752Z,17.73
2018-10-21T00:38:04.582Z,16.77
2018-10-21T00:42:08.446Z,17.37
2018-10-21T00:46:12.791Z,17.80
2018-10-21T00:50:16.709Z,16.83
2018-10-21T00:54:20.481Z,17.07
2018-10-21T00:58:24.243Z,16.73
2018-10-21T01:02:28.014Z,16.73
2018-10-21T01:06:32.231Z,16.97
2018-10-21T01:10:36.039Z,16.37
2018-10-21T01:14:39.847Z,16.57
2018-10-21T01:18:43.657Z,18.90
2018-10-21T01:22:47.430Z,17.93
2018-10-21T01:26:51.215Z,17.47
2018-10-21T01:30:54.976Z,18.90
2018-10-21T01:34:58.790Z,17.50
2018-10-21T01:39:02.685Z,16.83
2018-10-21T01:43:07.587Z,17.17
2018-10-21T01:47:11.398Z,17.77
2018-10-21T01:51:15.545Z,16.47
2018-10-21T01:55:19.283Z,20.03
2018-10-21T01:59:23.140Z,18.10
2018-10-21T02:03:26.988Z,16.73
2018-10-21T02:07:30.797Z,17.10
2018-10-21T02:11:34.533Z,17.00
2018-10-21T02:15:38.286Z,17.50
2018-10-21T02:19:42.183Z,17.67
2018-10-21T02:23:45.949Z,18.93
2018-10-21T02:27:50.576Z,18.80
2018-10-21T02:31:54.428Z,16.50
2018-10-21T02:35:58.182Z,18.07
2018-10-21T02:40:01.990Z,16.53
2018-10-21T02:44:07.084Z,19.20
2018-10-21T02:48:10.854Z,17.63
2018-10-21T02:52:14.637Z,18.23
2018-10-21T02:56:18.409Z,18.40
2018-10-21T03:00:22.287Z,18.40
2018-10-21T03:04:26.118Z,18.20
2018-10-21T03:08:29.885Z,16.97
2018-10-21T03:12:33.751Z,16.87
2018-10-21T03:16:37.497Z,18.43
2018-10-21T03:20:41.291Z,16.93
2018-10-21T03:24:45.061Z,19.70
2018-10-21T03:28:48.807Z,19.53
2018-10-21T03:32:52.292Z,18.97
2018-10-21T03:36:55.993Z,19.37
2018-10-21T03:40:59.822Z,19.73
2018-10-21T03:45:03.620Z,20.53
2018-10-21T03:49:07.392Z,20.90
2018-10-21T03:53:11.166Z,22.10
2018-10-21T03:57:14.994Z,22.87
2018-10-21T04:01:18.777Z,22.77
2018-10-21T04:05:22.523Z,22.90
2018-10-21T04:09:26.270Z,22.93
2018-10-21T04:13:30.017Z,24.27
2018-10-21T04:17:33.688Z,21.73
2018-10-21T04:21:37.536Z,21.43
2018-10-21T04:25:41.520Z,20.20
2018-10-21T04:29:45.338Z,19.30
2018-10-21T04:33:49.182Z,19.53
2018-10-21T04:39:30.366Z,19.60
2018-10-21T04:43:34.192Z,20.73
2018-10-21T04:47:38.004Z,20.13
2018-10-21T04:51:41.794Z,19.17
2018-10-21T04:55:45.698Z,22.50
2018-10-21T04:59:49.493Z,22.30
2018-10-21T05:03:53.383Z,23.37
2018-10-21T05:07:57.191Z,23.13
2018-10-21T05:12:00.990Z,22.17
2018-10-21T05:16:04.927Z,23.17
2018-10-21T05:20:08.910Z,24.97
2018-10-21T05:24:12.602Z,23.33
2018-10-21T05:28:16.444Z,23.60
2018-10-21T05:32:20.153Z,24.00
2018-10-21T05:36:23.929Z,25.93
2018-10-21T05:40:27.708Z,25.63
2018-10-21T05:44:31.517Z,24.80
2018-10-21T05:48:35.359Z,23.90
2018-10-21T05:52:39.439Z,24.63
2018-10-21T05:56:45.444Z,23.10
2018-10-21T06:00:49.251Z,26.50
2018-10-21T06:04:53.898Z,24.87
2018-10-21T06:08:57.608Z,24.73
2018-10-21T06:13:01.385Z,25.93
2018-10-21T06:17:10.323Z,23.53
2018-10-21T06:21:14.113Z,24.73
2018-10-21T06:25:17.856Z,24.57
2018-10-21T06:29:21.601Z,25.97
2018-10-21T06:33:25.392Z,25.97
2018-10-21T06:37:29.149Z,25.80
2018-10-21T06:41:32.933Z,27.70
2018-10-21T06:45:36.713Z,26.23
2018-10-21T06:49:40.414Z,26.73
2018-10-21T06:53:44.184Z,26.00
2018-10-21T06:57:48.123Z,26.83
2018-10-21T07:01:51.849Z,28.53
2018-10-21T07:06:17.623Z,27.13
2018-10-21T07:10:21.701Z,26.43
2018-10-21T07:14:25.533Z,26.37
2018-10-21T07:18:29.473Z,28.37
2018-10-21T07:22:33.283Z,27.13
2018-10-21T07:26:37.039Z,26.83
2018-10-21T07:30:40.806Z,26.17
2018-10-21T07:34:44.544Z,26.50
2018-10-21T07:38:48.304Z,27.13
2018-10-21T07:42:52.008Z,28.37
2018-10-21T07:46:55.808Z,27.23
2018-10-21T07:50:59.528Z,27.20
2018-10-21T07:55:03.343Z,26.93
2018-10-21T07:59:07.240Z,25.80
2018-10-21T08:03:11.049Z,25.80
2018-10-21T08:07:26.027Z,26.83
2018-10-21T08:11:29.832Z,26.27
2018-10-21T08:15:33.612Z,26.70
2018-10-21T08:19:37.425Z,24.23
2018-10-21T08:23:41.276Z,24.60
2018-10-21T08:27:45.020Z,25.73
2018-10-21T08:31:48.708Z,24.57
2018-10-21T08:35:52.524Z,24.27
2018-10-21T08:39:56.396Z,23.40
2018-10-21T08:44:00.139Z,24.50
2018-10-21T08:48:03.923Z,24.53
2018-10-21T08:52:07.719Z,24.00
2018-10-21T08:56:11.449Z,22.47
2018-10-21T09:00:17.172Z,23.40
2018-10-21T09:04:20.897Z,23.10
2018-10-21T09:08:24.642Z,23.50
2018-10-21T09:12:28.302Z,22.30
2018-10-21T09:16:32.108Z,22.87
2018-10-21T09:20:35.798Z,23.03
2018-10-21T09:24:39.488Z,22.77
2018-10-21T09:28:43.248Z,23.40
2018-10-21T09:32:46.938Z,23.10
2018-10-21T09:36:50.732Z,22.20
2018-10-21T09:40:54.492Z,23.03
2018-10-21T09:44:58.281Z,22.53
2018-10-21T09:49:02.010Z,22.80
2018-10-21T09:53:05.933Z,22.77
2018-10-21T09:57:09.658Z,21.40
2018-10-21T10:01:18.811Z,20.60
2018-10-21T10:05:22.694Z,21.93
2018-10-21T10:09:26.392Z,21.73
2018-10-21T10:13:30.116Z,21.00
2018-10-21T10:17:33.816Z,20.37
2018-10-21T10:21:37.597Z,21.30
2018-10-21T10:25:41.300Z,19.53
2018-10-21T10:29:45.088Z,20.50
2018-10-21T10:33:48.883Z,19.23
2018-10-21T10:37:52.562Z,19.63
2018-10-21T10:41:56.358Z,19.63
2018-10-21T10:46:00.044Z,19.27
2018-10-21T10:50:04.035Z,17.27
2018-10-21T10:54:07.688Z,18.63
2018-10-21T10:58:11.425Z,16.47
2018-10-21T11:02:15.108Z,17.53
2018-10-21T11:06:18.851Z,17.83
2018-10-21T11:10:22.512Z,17.00
2018-10-21T11:14:26.189Z,17.80
2018-10-21T11:18:30.001Z,17.70
2018-10-21T11:22:33.745Z,18.57
2018-10-21T11:26:37.597Z,18.20
2018-10-21T11:30:41.276Z,18.43
2018-10-21T11:34:44.971Z,16.70
2018-10-21T11:38:48.701Z,16.97
2018-10-21T11:42:52.436Z,16.73
2018-10-21T11:46:56.357Z,18.23
2018-10-21T11:51:00.053Z,16.10
2018-10-21T11:55:03.868Z,14.30
2018-10-21T11:59:08.564Z,15.80
2018-10-21T12:03:12.905Z,16.00
2018-10-21T12:07:16.850Z,15.23
2018-10-21T12:11:20.517Z,17.00
2018-10-21T12:15:24.224Z,16.23
2018-10-21T12:19:27.909Z,15.43
2018-10-21T12:23:31.699Z,16.23
2018-10-21T12:27:35.427Z,15.33
2018-10-21T12:31:39.101Z,13.37
2018-10-21T12:35:42.825Z,12.23
2018-10-21T12:39:46.580Z,11.33
2018-10-21T12:43:50.294Z,9.87
2018-10-21T12:47:54.040Z,9.37
2018-10-21T12:51:57.739Z,10.07
2018-10-21T12:56:01.471Z,8.03
2018-10-21T13:00:05.384Z,7.50
2018-10-21T13:04:09.169Z,6.67
2018-10-21T13:08:12.907Z,9.93
2018-10-21T13:12:16.704Z,9.90
2018-10-21T13:16:20.430Z,8.53
2018-10-21T13:20:24.227Z,8.87
2018-10-21T13:24:27.933Z,8.67
2018-10-21T13:28:31.737Z,9.00
2018-10-21T13:32:35.436Z,8.60
2018-10-21T13:36:39.423Z,9.30
2018-10-21T13:40:43.212Z,9.60
2018-10-21T13:44:46.941Z,8.50
2018-10-21T13:48:50.698Z,6.50
2018-10-21T13:52:54.448Z,6.73
2018-10-21T13:56:58.142Z,7.30
2018-10-21T14:01:01.944Z,8.17
2018-10-21T14:05:06.352Z,7.77
2018-10-21T14:09:12.180Z,8.60
2018-10-21T14:13:15.949Z,8.80
2018-10-21T14:17:19.618Z,8.00
2018-10-21T14:21:23.338Z,9.07
2018-10-21T14:25:27.065Z,9.67
2018-10-21T14:29:30.776Z,9.33
2018-10-21T14:33:34.470Z,8.90
2018-10-21T14:37:38.616Z,9.33
2018-10-21T14:41:42.828Z,8.30
2018-10-21T14:45:46.598Z,8.30
2018-10-21T14:49:51.135Z,8.90
2018-10-21T14:53:54.823Z,8.50
2018-10-21T14:57:58.572Z,10.07
2018-10-21T15:02:02.298Z,8.50
2018-10-21T15:06:06.069Z,8.57
2018-10-21T15:10:10.872Z,8.90
2018-10-21T15:14:14.551Z,8.60
2018-10-21T15:18:18.330Z,9.10
2018-10-21T15:22:22.048Z,8.97
2018-10-21T15:26:25.825Z,7.63
2018-10-21T15:30:29.560Z,7.57
2018-10-21T15:34:33.266Z,6.80
2018-10-21T15:38:37.030Z,7.60
2018-10-21T15:42:40.822Z,6.37
2018-10-21T15:46:44.504Z,5.80
2018-10-21T15:50:48.293Z,5.87
2018-10-21T15:54:51.976Z,5.23
2018-10-21T15:58:55.706Z,5.70
2018-10-21T16:02:59.413Z,5.70
2018-10-21T16:07:03.129Z,5.50
2018-10-21T16:11:07.179Z,5.77
2018-10-21T16:15:14.225Z,5.37
2018-10-21T16:19:18.015Z,5.10
2018-10-21T16:23:21.729Z,5.53
2018-10-21T16:27:25.421Z,5.17
2018-10-21T16:31:29.161Z,5.87
2018-10-21T16:35:32.894Z,4.83
2018-10-21T16:39:36.590Z,5.57
2018-10-21T16:43:40.289Z,5.50
2018-10-21T16:47:43.995Z,4.40
2018-10-21T16:51:47.858Z,6.00
2018-10-21T16:55:51.581Z,7.37
2018-10-21T16:59:55.453Z,8.00
2018-10-21T17:03:59.155Z,7.13
2018-10-21T17:08:02.981Z,7.60
2018-10-21T17:12:06.810Z,6.60
2018-10-21T17:16:10.685Z,7.40
2018-10-21T17:20:15.629Z,8.27
2018-10-21T17:24:19.431Z,9.47
2018-10-21T17:28:23.126Z,9.13
2018-10-21T17:32:26.866Z,8.63
2018-10-21T17:36:30.614Z,8.00
2018-10-21T17:40:34.478Z,9.27
2018-10-21T17:44:38.206Z,9.60
2018-10-21T17:48:42.046Z,11.10
2018-10-21T17:52:45.851Z,10.10
2018-10-21T17:56:54.783Z,10.57
2018-10-21T18:00:58.598Z,9.70
2018-10-21T18:05:02.388Z,10.63
2018-10-21T18:09:08.547Z,10.43
2018-10-21T18:13:12.358Z,9.83
2018-10-21T18:17:16.093Z,10.30
2018-10-21T18:21:19.873Z,8.20
2018-10-21T18:25:23.625Z,8.43
2018-10-21T18:29:27.475Z,7.30
2018-10-21T18:33:31.200Z,8.17
2018-10-21T18:37:34.956Z,8.03
2018-10-21T18:41:38.800Z,8.03
2018-10-21T18:45:42.608Z,8.03
2018-10-21T18:49:46.360Z,8.53
2018-10-21T18:53:50.126Z,8.10
2018-10-21T18:57:53.883Z,8.60
2018-10-21T19:01:57.781Z,8.53
2018-10-21T19:06:01.596Z,9.30
2018-10-21T19:10:06.559Z,9.70
2018-10-21T19:14:10.776Z,9.63
2018-10-21T19:18:14.541Z,8.97
2018-10-21T19:22:18.407Z,8.20
2018-10-21T19:26:22.258Z,8.60
2018-10-21T19:30:26.077Z,8.80
2018-10-21T19:34:29.858Z,8.43
2018-10-21T19:38:33.644Z,7.83
2018-10-21T19:42:37.398Z,8.43
2018-10-21T19:46:41.213Z,8.33
2018-10-21T19:50:45.013Z,7.67
2018-10-21T19:54:48.807Z,7.90
2018-10-21T19:58:52.622Z,7.87
2018-10-21T20:02:56.405Z,7.87
2018-10-21T20:07:00.206Z,8.73
2018-10-21T20:11:04.079Z,8.13
2018-10-21T20:15:08.765Z,10.07
2018-10-21T20:19:12.648Z,9.63
2018-10-21T20:23:16.362Z,9.40
2018-10-21T20:27:20.163Z,8.80
2018-10-21T20:31:24.117Z,9.43
2018-10-21T20:35:27.918Z,10.27
2018-10-21T20:39:31.690Z,9.40
2018-10-21T20:43:35.472Z,9.60
2018-10-21T20:47:39.212Z,9.53
2018-10-21T20:51:43.366Z,10.17
2018-10-21T20:55:47.041Z,10.60
2018-10-21T20:59:50.758Z,10.50
2018-10-21T21:03:54.526Z,10.43
2018-10-21T21:07:58.241Z,9.87
2018-10-21T21:12:02.149Z,9.50
2018-10-21T21:16:06.609Z,9.90
2018-10-21T21:20:10.606Z,11.30
2018-10-21T21:24:14.430Z,10.93
2018-10-21T21:28:18.116Z,10.90
2018-10-21T21:32:21.857Z,10.87
2018-10-21T21:36:25.631Z,11.60
2018-10-21T21:40:29.478Z,11.37
2018-10-21T21:44:33.284Z,11.70
2018-10-21T21:48:36.989Z,11.87
2018-10-21T21:52:40.762Z,11.53
2018-10-21T21:56:46.436Z,11.97
2018-10-21T22:00:50.241Z,10.27
2018-10-21T22:04:54.136Z,12.70
2018-10-21T22:08:57.920Z,13.67
2018-10-21T22:13:01.764Z,13.03
2018-10-21T22:17:05.592Z,12.40
2018-10-21T22:21:09.385Z,11.93
2018-10-21T22:25:13.186Z,12.27
2018-10-21T22:29:16.909Z,12.30
2018-10-21T22:33:20.664Z,12.50
2018-10-21T22:37:24.457Z,14.07
2018-10-21T22:41:28.282Z,13.83
2018-10-21T22:45:32.054Z,14.90
2018-10-21T22:49:35.850Z,14.23
2018-10-21T22:53:39.609Z,13.53
2018-10-21T22:57:43.329Z,13.57
2018-10-21T23:01:47.159Z,14.70
2018-10-21T23:05:50.986Z,13.10
2018-10-21T23:09:54.730Z,13.77
2018-10-21T23:13:58.587Z,13.80
2018-10-21T23:18:02.389Z,13.10
2018-10-21T23:22:06.315Z,13.10
2018-10-21T23:26:10.130Z,13.10
2018-10-21T23:30:13.927Z,12.60
2018-10-21T23:34:17.757Z,13.30
2018-10-21T23:38:21.480Z,13.00
2018-10-21T23:42:25.329Z,14.10
2018-10-21T23:46:29.071Z,13.67
2018-10-21T23:50:32.904Z,13.70
2018-10-21T23:54:36.797Z,12.27
2018-10-21T23:58:40.603Z,13.23
